sensor_id;sensor_type;location;lat;lon;timestamp;P1;durP1;ratioP1;P2;durP2;ratioP2
66342;SDS011;53144;51.524;5.080;2023-02-28T00:00:10;6.95;;;5.10;;
66342;SDS011;53144;51.524;5.080;2023-02-28T00:02:40;12.00;;;5.45;;
66342;SDS011;53144;51.524;5.080;2023-02-28T00:05:07;7.95;;;4.63;;
66342;SDS011;53144;51.524;5.080;2023-02-28T00:07:34;9.45;;;5.03;;
66342;SDS011;53144;51.524;5.080;2023-02-28T00:10:01;6.82;;;5.10;;
66342;SDS011;53144;51.524;5.080;2023-02-28T00:12:27;9.32;;;5.65;;
66342;SDS011;53144;51.524;5.080;2023-02-28T00:14:52;8.60;;;4.60;;
66342;SDS011;53144;51.524;5.080;2023-02-28T00:17:18;9.90;;;5.00;;
66342;SDS011;53144;51.524;5.080;2023-02-28T00:19:46;9.57;;;5.30;;
66342;SDS011;53144;51.524;5.080;2023-02-28T00:22:13;6.95;;;4.78;;
66342;SDS011;53144;51.524;5.080;2023-02-28T00:24:38;9.48;;;4.63;;
66342;SDS011;53144;51.524;5.080;2023-02-28T00:27:04;7.67;;;4.30;;
66342;SDS011;53144;51.524;5.080;2023-02-28T00:29:29;6.45;;;4.97;;
66342;SDS011;53144;51.524;5.080;2023-02-28T00:31:55;8.27;;;4.82;;
66342;SDS011;53144;51.524;5.080;2023-02-28T00:34:20;8.37;;;5.03;;
66342;SDS011;53144;51.524;5.080;2023-02-28T00:36:45;10.10;;;5.57;;
66342;SDS011;53144;51.524;5.080;2023-02-28T00:39:13;9.02;;;5.28;;
66342;SDS011;53144;51.524;5.080;2023-02-28T00:41:39;10.15;;;5.22;;
66342;SDS011;53144;51.524;5.080;2023-02-28T00:44:04;10.80;;;5.53;;
66342;SDS011;53144;51.524;5.080;2023-02-28T00:46:30;9.33;;;4.90;;
66342;SDS011;53144;51.524;5.080;2023-02-28T00:48:55;12.67;;;5.23;;
66342;SDS011;53144;51.524;5.080;2023-02-28T00:51:21;10.40;;;5.22;;
66342;SDS011;53144;51.524;5.080;2023-02-28T00:53:46;9.27;;;5.50;;
66342;SDS011;53144;51.524;5.080;2023-02-28T00:56:11;8.13;;;5.23;;
66342;SDS011;53144;51.524;5.080;2023-02-28T00:58:37;12.53;;;6.23;;
66342;SDS011;53144;51.524;5.080;2023-02-28T01:01:02;12.23;;;5.55;;
66342;SDS011;53144;51.524;5.080;2023-02-28T01:03:27;6.28;;;5.07;;
66342;SDS011;53144;51.524;5.080;2023-02-28T01:05:53;8.13;;;5.40;;
66342;SDS011;53144;51.524;5.080;2023-02-28T01:08:19;13.20;;;5.13;;
66342;SDS011;53144;51.524;5.080;2023-02-28T01:10:44;8.63;;;5.10;;
66342;SDS011;53144;51.524;5.080;2023-02-28T01:13:10;9.00;;;4.93;;
66342;SDS011;53144;51.524;5.080;2023-02-28T01:15:36;8.45;;;5.07;;
66342;SDS011;53144;51.524;5.080;2023-02-28T01:18:02;7.07;;;5.30;;
66342;SDS011;53144;51.524;5.080;2023-02-28T01:20:28;8.33;;;5.33;;
66342;SDS011;53144;51.524;5.080;2023-02-28T01:22:53;8.13;;;5.10;;
66342;SDS011;53144;51.524;5.080;2023-02-28T01:25:19;10.20;;;5.20;;
66342;SDS011;53144;51.524;5.080;2023-02-28T01:27:44;10.17;;;5.20;;
66342;SDS011;53144;51.524;5.080;2023-02-28T01:30:10;9.18;;;4.75;;
66342;SDS011;53144;51.524;5.080;2023-02-28T01:32:36;10.05;;;4.97;;
66342;SDS011;53144;51.524;5.080;2023-02-28T01:35:01;7.25;;;5.15;;
66342;SDS011;53144;51.524;5.080;2023-02-28T01:37:27;7.25;;;5.07;;
66342;SDS011;53144;51.524;5.080;2023-02-28T01:39:53;9.35;;;5.20;;
66342;SDS011;53144;51.524;5.080;2023-02-28T01:42:18;9.00;;;4.80;;
66342;SDS011;53144;51.524;5.080;2023-02-28T01:47:38;9.15;;;5.20;;
66342;SDS011;53144;51.524;5.080;2023-02-28T01:50:07;10.00;;;4.85;;
66342;SDS011;53144;51.524;5.080;2023-02-28T01:52:43;9.73;;;5.43;;
66342;SDS011;53144;51.524;5.080;2023-02-28T01:55:11;10.70;;;5.53;;
66342;SDS011;53144;51.524;5.080;2023-02-28T02:02:42;8.83;;;5.70;;
66342;SDS011;53144;51.524;5.080;2023-02-28T02:05:10;11.13;;;5.47;;
66342;SDS011;53144;51.524;5.080;2023-02-28T02:07:40;9.30;;;5.72;;
66342;SDS011;53144;51.524;5.080;2023-02-28T02:10:19;6.88;;;5.00;;
66342;SDS011;53144;51.524;5.080;2023-02-28T02:21:04;9.60;;;5.07;;
66342;SDS011;53144;51.524;5.080;2023-02-28T02:29:02;10.45;;;5.20;;
66342;SDS011;53144;51.524;5.080;2023-02-28T02:37:11;6.43;;;4.57;;
66342;SDS011;53144;51.524;5.080;2023-02-28T02:42:28;6.50;;;4.53;;
66342;SDS011;53144;51.524;5.080;2023-02-28T02:45:00;7.38;;;5.22;;
66342;SDS011;53144;51.524;5.080;2023-02-28T02:47:32;7.47;;;4.80;;
66342;SDS011;53144;51.524;5.080;2023-02-28T02:50:02;6.25;;;4.70;;
66342;SDS011;53144;51.524;5.080;2023-02-28T02:52:34;8.63;;;4.72;;
66342;SDS011;53144;51.524;5.080;2023-02-28T02:55:03;8.50;;;5.22;;
66342;SDS011;53144;51.524;5.080;2023-02-28T02:57:32;8.18;;;4.43;;
66342;SDS011;53144;51.524;5.080;2023-02-28T03:00:03;6.97;;;4.72;;
66342;SDS011;53144;51.524;5.080;2023-02-28T03:02:33;5.45;;;4.47;;
66342;SDS011;53144;51.524;5.080;2023-02-28T03:05:02;11.27;;;5.13;;
66342;SDS011;53144;51.524;5.080;2023-02-28T03:07:33;7.38;;;4.78;;
66342;SDS011;53144;51.524;5.080;2023-02-28T03:09:58;7.40;;;4.60;;
66342;SDS011;53144;51.524;5.080;2023-02-28T03:12:27;6.10;;;4.50;;
66342;SDS011;53144;51.524;5.080;2023-02-28T03:17:38;7.63;;;4.63;;
66342;SDS011;53144;51.524;5.080;2023-02-28T03:22:56;6.95;;;4.43;;
66342;SDS011;53144;51.524;5.080;2023-02-28T03:31:18;7.28;;;4.50;;
66342;SDS011;53144;51.524;5.080;2023-02-28T03:36:20;6.47;;;4.25;;
66342;SDS011;53144;51.524;5.080;2023-02-28T03:38:58;5.70;;;4.35;;
66342;SDS011;53144;51.524;5.080;2023-02-28T03:41:44;7.22;;;4.03;;
66342;SDS011;53144;51.524;5.080;2023-02-28T03:44:16;8.55;;;3.90;;
66342;SDS011;53144;51.524;5.080;2023-02-28T03:46:53;11.32;;;4.60;;
66342;SDS011;53144;51.524;5.080;2023-02-28T03:49:24;5.68;;;4.30;;
66342;SDS011;53144;51.524;5.080;2023-02-28T03:51:56;8.80;;;4.63;;
66342;SDS011;53144;51.524;5.080;2023-02-28T03:54:27;7.63;;;4.40;;
66342;SDS011;53144;51.524;5.080;2023-02-28T03:57:02;6.70;;;3.72;;
66342;SDS011;53144;51.524;5.080;2023-02-28T03:59:34;7.93;;;4.03;;
66342;SDS011;53144;51.524;5.080;2023-02-28T04:02:03;7.35;;;4.18;;
66342;SDS011;53144;51.524;5.080;2023-02-28T04:04:28;6.15;;;4.28;;
66342;SDS011;53144;51.524;5.080;2023-02-28T04:07:00;8.97;;;4.63;;
66342;SDS011;53144;51.524;5.080;2023-02-28T04:09:28;9.65;;;4.22;;
66342;SDS011;53144;51.524;5.080;2023-02-28T04:11:53;8.77;;;4.47;;
66342;SDS011;53144;51.524;5.080;2023-02-28T04:14:20;6.90;;;4.05;;
66342;SDS011;53144;51.524;5.080;2023-02-28T04:16:46;7.97;;;3.78;;
66342;SDS011;53144;51.524;5.080;2023-02-28T04:19:12;8.85;;;3.80;;
66342;SDS011;53144;51.524;5.080;2023-02-28T04:24:05;9.82;;;3.70;;
66342;SDS011;53144;51.524;5.080;2023-02-28T04:26:35;8.70;;;3.97;;
66342;SDS011;53144;51.524;5.080;2023-02-28T04:29:02;5.70;;;3.75;;
66342;SDS011;53144;51.524;5.080;2023-02-28T04:31:30;5.28;;;3.95;;
66342;SDS011;53144;51.524;5.080;2023-02-28T04:36:21;5.32;;;3.67;;
66342;SDS011;53144;51.524;5.080;2023-02-28T04:38:48;7.22;;;4.30;;
66342;SDS011;53144;51.524;5.080;2023-02-28T04:41:14;9.05;;;4.28;;
66342;SDS011;53144;51.524;5.080;2023-02-28T04:43:40;5.00;;;3.70;;
66342;SDS011;53144;51.524;5.080;2023-02-28T04:46:05;7.82;;;3.78;;
66342;SDS011;53144;51.524;5.080;2023-02-28T04:48:32;6.18;;;3.63;;
66342;SDS011;53144;51.524;5.080;2023-02-28T04:51:00;8.60;;;4.50;;
66342;SDS011;53144;51.524;5.080;2023-02-28T04:53:28;6.75;;;4.05;;
66342;SDS011;53144;51.524;5.080;2023-02-28T04:58:19;6.85;;;3.88;;
66342;SDS011;53144;51.524;5.080;2023-02-28T05:00:47;5.50;;;4.07;;
66342;SDS011;53144;51.524;5.080;2023-02-28T05:03:12;8.33;;;4.30;;
66342;SDS011;53144;51.524;5.080;2023-02-28T05:05:38;7.03;;;4.10;;
66342;SDS011;53144;51.524;5.080;2023-02-28T05:08:03;7.47;;;4.53;;
66342;SDS011;53144;51.524;5.080;2023-02-28T05:10:30;6.88;;;4.47;;
66342;SDS011;53144;51.524;5.080;2023-02-28T05:12:56;5.95;;;4.25;;
66342;SDS011;53144;51.524;5.080;2023-02-28T05:15:21;6.73;;;4.33;;
66342;SDS011;53144;51.524;5.080;2023-02-28T05:17:46;6.23;;;4.03;;
66342;SDS011;53144;51.524;5.080;2023-02-28T05:20:12;8.93;;;4.23;;
66342;SDS011;53144;51.524;5.080;2023-02-28T05:22:38;8.70;;;4.00;;
66342;SDS011;53144;51.524;5.080;2023-02-28T05:27:30;7.57;;;4.30;;
66342;SDS011;53144;51.524;5.080;2023-02-28T05:29:56;9.50;;;4.30;;
66342;SDS011;53144;51.524;5.080;2023-02-28T05:32:21;5.43;;;4.15;;
66342;SDS011;53144;51.524;5.080;2023-02-28T05:34:47;4.68;;;3.50;;
66342;SDS011;53144;51.524;5.080;2023-02-28T05:37:13;7.80;;;3.47;;
66342;SDS011;53144;51.524;5.080;2023-02-28T05:39:40;9.18;;;3.80;;
66342;SDS011;53144;51.524;5.080;2023-02-28T05:42:06;7.72;;;4.13;;
66342;SDS011;53144;51.524;5.080;2023-02-28T05:44:31;7.90;;;4.32;;
66342;SDS011;53144;51.524;5.080;2023-02-28T05:46:57;7.03;;;4.05;;
66342;SDS011;53144;51.524;5.080;2023-02-28T05:49:22;8.13;;;3.42;;
66342;SDS011;53144;51.524;5.080;2023-02-28T05:51:48;4.87;;;3.57;;
66342;SDS011;53144;51.524;5.080;2023-02-28T05:54:13;5.20;;;3.33;;
66342;SDS011;53144;51.524;5.080;2023-02-28T05:56:39;6.32;;;3.35;;
66342;SDS011;53144;51.524;5.080;2023-02-28T05:59:05;5.90;;;3.60;;
66342;SDS011;53144;51.524;5.080;2023-02-28T06:04:00;5.85;;;3.60;;
66342;SDS011;53144;51.524;5.080;2023-02-28T06:06:26;5.40;;;3.40;;
66342;SDS011;53144;51.524;5.080;2023-02-28T06:08:52;6.55;;;3.90;;
66342;SDS011;53144;51.524;5.080;2023-02-28T06:11:17;5.83;;;3.70;;
66342;SDS011;53144;51.524;5.080;2023-02-28T06:13:44;5.43;;;3.70;;
66342;SDS011;53144;51.524;5.080;2023-02-28T06:16:10;6.68;;;3.90;;
66342;SDS011;53144;51.524;5.080;2023-02-28T06:18:36;6.07;;;3.67;;
66342;SDS011;53144;51.524;5.080;2023-02-28T06:21:01;4.78;;;3.65;;
66342;SDS011;53144;51.524;5.080;2023-02-28T06:23:27;5.45;;;3.95;;
66342;SDS011;53144;51.524;5.080;2023-02-28T06:25:52;8.77;;;4.25;;
66342;SDS011;53144;51.524;5.080;2023-02-28T06:28:18;6.87;;;3.57;;
66342;SDS011;53144;51.524;5.080;2023-02-28T06:30:43;8.23;;;3.78;;
66342;SDS011;53144;51.524;5.080;2023-02-28T06:33:09;5.90;;;3.50;;
66342;SDS011;53144;51.524;5.080;2023-02-28T06:35:34;6.22;;;3.72;;
66342;SDS011;53144;51.524;5.080;2023-02-28T06:38:00;8.93;;;4.10;;
66342;SDS011;53144;51.524;5.080;2023-02-28T06:40:25;7.60;;;3.70;;
66342;SDS011;53144;51.524;5.080;2023-02-28T06:42:51;7.05;;;4.35;;
66342;SDS011;53144;51.524;5.080;2023-02-28T06:45:17;7.20;;;4.13;;
66342;SDS011;53144;51.524;5.080;2023-02-28T06:47:42;9.77;;;4.10;;
66342;SDS011;53144;51.524;5.080;2023-02-28T06:50:11;8.27;;;3.90;;
66342;SDS011;53144;51.524;5.080;2023-02-28T06:52:38;6.28;;;3.92;;
66342;SDS011;53144;51.524;5.080;2023-02-28T06:55:04;7.03;;;4.68;;
66342;SDS011;53144;51.524;5.080;2023-02-28T06:57:32;7.00;;;4.10;;
66342;SDS011;53144;51.524;5.080;2023-02-28T07:00:00;8.15;;;3.90;;
66342;SDS011;53144;51.524;5.080;2023-02-28T07:02:28;6.22;;;3.67;;
66342;SDS011;53144;51.524;5.080;2023-02-28T07:04:53;7.35;;;3.60;;
66342;SDS011;53144;51.524;5.080;2023-02-28T07:07:19;5.15;;;3.67;;
66342;SDS011;53144;51.524;5.080;2023-02-28T07:09:44;11.63;;;4.65;;
66342;SDS011;53144;51.524;5.080;2023-02-28T07:12:11;5.55;;;3.80;;
66342;SDS011;53144;51.524;5.080;2023-02-28T07:14:36;5.77;;;3.57;;
66342;SDS011;53144;51.524;5.080;2023-02-28T07:17:02;4.55;;;3.50;;
66342;SDS011;53144;51.524;5.080;2023-02-28T07:19:28;4.05;;;3.55;;
66342;SDS011;53144;51.524;5.080;2023-02-28T07:21:54;5.90;;;3.33;;
66342;SDS011;53144;51.524;5.080;2023-02-28T07:24:19;4.20;;;3.20;;
66342;SDS011;53144;51.524;5.080;2023-02-28T07:26:44;6.23;;;3.67;;
66342;SDS011;53144;51.524;5.080;2023-02-28T07:29:10;8.30;;;3.53;;
66342;SDS011;53144;51.524;5.080;2023-02-28T07:31:35;4.72;;;3.03;;
66342;SDS011;53144;51.524;5.080;2023-02-28T07:34:00;5.78;;;2.85;;
66342;SDS011;53144;51.524;5.080;2023-02-28T07:36:27;5.50;;;3.45;;
66342;SDS011;53144;51.524;5.080;2023-02-28T07:38:52;4.33;;;3.03;;
66342;SDS011;53144;51.524;5.080;2023-02-28T07:41:19;4.47;;;2.70;;
66342;SDS011;53144;51.524;5.080;2023-02-28T07:43:45;4.70;;;2.80;;
66342;SDS011;53144;51.524;5.080;2023-02-28T07:46:12;3.03;;;2.65;;
66342;SDS011;53144;51.524;5.080;2023-02-28T07:48:43;3.92;;;2.83;;
66342;SDS011;53144;51.524;5.080;2023-02-28T07:53:34;3.75;;;2.67;;
66342;SDS011;53144;51.524;5.080;2023-02-28T07:56:00;2.70;;;2.20;;
66342;SDS011;53144;51.524;5.080;2023-02-28T07:58:27;3.70;;;2.22;;
66342;SDS011;53144;51.524;5.080;2023-02-28T08:00:53;4.03;;;2.58;;
66342;SDS011;53144;51.524;5.080;2023-02-28T08:03:20;5.05;;;2.53;;
66342;SDS011;53144;51.524;5.080;2023-02-28T08:05:47;3.20;;;2.55;;
66342;SDS011;53144;51.524;5.080;2023-02-28T08:08:13;3.03;;;2.15;;
66342;SDS011;53144;51.524;5.080;2023-02-28T08:10:39;4.55;;;2.50;;
66342;SDS011;53144;51.524;5.080;2023-02-28T08:13:05;3.35;;;1.95;;
66342;SDS011;53144;51.524;5.080;2023-02-28T08:15:30;3.17;;;2.22;;
66342;SDS011;53144;51.524;5.080;2023-02-28T08:17:56;3.63;;;2.30;;
66342;SDS011;53144;51.524;5.080;2023-02-28T08:20:22;2.25;;;1.95;;
66342;SDS011;53144;51.524;5.080;2023-02-28T08:22:48;3.40;;;1.90;;
66342;SDS011;53144;51.524;5.080;2023-02-28T08:25:14;2.05;;;1.73;;
66342;SDS011;53144;51.524;5.080;2023-02-28T08:27:39;1.95;;;1.83;;
66342;SDS011;53144;51.524;5.080;2023-02-28T08:30:05;2.60;;;1.98;;
66342;SDS011;53144;51.524;5.080;2023-02-28T08:32:32;1.88;;;1.70;;
66342;SDS011;53144;51.524;5.080;2023-02-28T08:34:58;2.28;;;2.08;;
66342;SDS011;53144;51.524;5.080;2023-02-28T08:37:24;3.65;;;1.95;;
66342;SDS011;53144;51.524;5.080;2023-02-28T08:39:49;2.20;;;1.65;;
66342;SDS011;53144;51.524;5.080;2023-02-28T08:42:14;5.13;;;2.33;;
66342;SDS011;53144;51.524;5.080;2023-02-28T08:44:40;4.63;;;1.93;;
66342;SDS011;53144;51.524;5.080;2023-02-28T08:47:06;4.05;;;1.70;;
66342;SDS011;53144;51.524;5.080;2023-02-28T08:49:31;4.10;;;2.43;;
66342;SDS011;53144;51.524;5.080;2023-02-28T08:51:57;2.38;;;1.73;;
66342;SDS011;53144;51.524;5.080;2023-02-28T08:54:23;3.50;;;2.20;;
66342;SDS011;53144;51.524;5.080;2023-02-28T08:56:48;4.28;;;2.13;;
66342;SDS011;53144;51.524;5.080;2023-02-28T08:59:14;3.38;;;2.20;;
66342;SDS011;53144;51.524;5.080;2023-02-28T09:01:40;2.35;;;2.00;;
66342;SDS011;53144;51.524;5.080;2023-02-28T09:04:06;3.03;;;2.00;;
66342;SDS011;53144;51.524;5.080;2023-02-28T09:06:33;2.63;;;1.98;;
66342;SDS011;53144;51.524;5.080;2023-02-28T09:11:29;3.08;;;2.30;;
66342;SDS011;53144;51.524;5.080;2023-02-28T09:13:55;2.15;;;1.92;;
66342;SDS011;53144;51.524;5.080;2023-02-28T09:16:20;3.47;;;1.95;;
66342;SDS011;53144;51.524;5.080;2023-02-28T09:21:14;3.63;;;2.28;;
66342;SDS011;53144;51.524;5.080;2023-02-28T09:23:41;1.08;;;0.98;;
66342;SDS011;53144;51.524;5.080;2023-02-28T09:26:28;3.75;;;2.35;;
66342;SDS011;53144;51.524;5.080;2023-02-28T09:28:54;1.40;;;1.30;;
66342;SDS011;53144;51.524;5.080;2023-02-28T09:31:24;3.05;;;1.75;;
66342;SDS011;53144;51.524;5.080;2023-02-28T09:33:52;1.77;;;1.50;;
66342;SDS011;53144;51.524;5.080;2023-02-28T09:36:20;2.65;;;1.80;;
66342;SDS011;53144;51.524;5.080;2023-02-28T09:38:49;1.65;;;1.40;;
66342;SDS011;53144;51.524;5.080;2023-02-28T09:41:25;2.38;;;1.52;;
66342;SDS011;53144;51.524;5.080;2023-02-28T09:43:57;2.63;;;1.70;;
66342;SDS011;53144;51.524;5.080;2023-02-28T09:46:36;2.08;;;1.63;;
66342;SDS011;53144;51.524;5.080;2023-02-28T09:49:16;2.45;;;1.77;;
66342;SDS011;53144;51.524;5.080;2023-02-28T09:51:49;2.78;;;1.85;;
66342;SDS011;53144;51.524;5.080;2023-02-28T09:54:22;2.65;;;1.70;;
66342;SDS011;53144;51.524;5.080;2023-02-28T09:56:50;2.58;;;2.17;;
66342;SDS011;53144;51.524;5.080;2023-02-28T09:59:59;1.70;;;1.60;;
66342;SDS011;53144;51.524;5.080;2023-02-28T10:02:41;2.15;;;1.75;;
66342;SDS011;53144;51.524;5.080;2023-02-28T10:05:12;3.00;;;1.50;;
66342;SDS011;53144;51.524;5.080;2023-02-28T10:10:07;1.60;;;1.50;;
66342;SDS011;53144;51.524;5.080;2023-02-28T10:12:52;6.53;;;1.80;;
66342;SDS011;53144;51.524;5.080;2023-02-28T10:15:19;1.73;;;1.63;;
66342;SDS011;53144;51.524;5.080;2023-02-28T10:17:48;3.20;;;1.80;;
66342;SDS011;53144;51.524;5.080;2023-02-28T10:20:20;1.33;;;1.23;;
66342;SDS011;53144;51.524;5.080;2023-02-28T10:25:37;2.47;;;1.70;;
66342;SDS011;53144;51.524;5.080;2023-02-28T10:28:10;2.47;;;1.70;;
66342;SDS011;53144;51.524;5.080;2023-02-28T10:30:39;4.57;;;1.73;;
66342;SDS011;53144;51.524;5.080;2023-02-28T10:33:40;2.00;;;1.55;;
66342;SDS011;53144;51.524;5.080;2023-02-28T10:36:00;1.88;;;1.67;;
66342;SDS011;53144;51.524;5.080;2023-02-28T10:38:29;2.40;;;1.90;;
66342;SDS011;53144;51.524;5.080;2023-02-28T10:41:08;3.65;;;1.85;;
66342;SDS011;53144;51.524;5.080;2023-02-28T10:43:36;2.17;;;1.52;;
66342;SDS011;53144;51.524;5.080;2023-02-28T10:51:00;1.60;;;1.50;;
66342;SDS011;53144;51.524;5.080;2023-02-28T10:53:34;2.13;;;1.70;;
66342;SDS011;53144;51.524;5.080;2023-02-28T11:04:02;1.80;;;1.50;;
66342;SDS011;53144;51.524;5.080;2023-02-28T11:09:00;1.70;;;1.60;;
66342;SDS011;53144;51.524;5.080;2023-02-28T11:11:29;2.13;;;1.40;;
66342;SDS011;53144;51.524;5.080;2023-02-28T11:13:58;4.80;;;1.60;;
66342;SDS011;53144;51.524;5.080;2023-02-28T11:16:36;1.95;;;1.70;;
66342;SDS011;53144;51.524;5.080;2023-02-28T11:19:03;1.80;;;1.55;;
66342;SDS011;53144;51.524;5.080;2023-02-28T11:21:35;2.33;;;1.40;;
66342;SDS011;53144;51.524;5.080;2023-02-28T11:26:41;1.95;;;1.38;;
66342;SDS011;53144;51.524;5.080;2023-02-28T11:29:10;4.35;;;1.50;;
66342;SDS011;53144;51.524;5.080;2023-02-28T11:32:07;2.13;;;1.48;;
66342;SDS011;53144;51.524;5.080;2023-02-28T11:34:35;2.72;;;1.67;;
66342;SDS011;53144;51.524;5.080;2023-02-28T11:37:02;2.55;;;1.70;;
66342;SDS011;53144;51.524;5.080;2023-02-28T11:39:31;3.97;;;1.58;;
66342;SDS011;53144;51.524;5.080;2023-02-28T11:42:11;1.70;;;1.60;;
66342;SDS011;53144;51.524;5.080;2023-02-28T11:53:17;2.22;;;1.65;;
66342;SDS011;53144;51.524;5.080;2023-02-28T12:03:56;3.42;;;1.85;;
66342;SDS011;53144;51.524;5.080;2023-02-28T12:20:00;3.17;;;1.88;;
66342;SDS011;53144;51.524;5.080;2023-02-28T12:22:40;2.03;;;1.58;;
66342;SDS011;53144;51.524;5.080;2023-02-28T12:25:18;1.52;;;1.42;;
66342;SDS011;53144;51.524;5.080;2023-02-28T12:27:46;1.95;;;1.63;;
66342;SDS011;53144;51.524;5.080;2023-02-28T12:30:47;1.60;;;1.50;;
66342;SDS011;53144;51.524;5.080;2023-02-28T12:33:12;3.05;;;1.80;;
66342;SDS011;53144;51.524;5.080;2023-02-28T12:35:43;2.92;;;1.98;;
66342;SDS011;53144;51.524;5.080;2023-02-28T12:38:14;2.60;;;1.80;;
66342;SDS011;53144;51.524;5.080;2023-02-28T12:40:49;2.63;;;1.98;;
66342;SDS011;53144;51.524;5.080;2023-02-28T12:43:19;2.85;;;1.80;;
66342;SDS011;53144;51.524;5.080;2023-02-28T12:45:52;1.88;;;1.70;;
66342;SDS011;53144;51.524;5.080;2023-02-28T12:51:24;1.88;;;1.70;;
66342;SDS011;53144;51.524;5.080;2023-02-28T12:59:14;2.35;;;1.70;;
66342;SDS011;53144;51.524;5.080;2023-02-28T13:04:27;2.38;;;1.70;;
66342;SDS011;53144;51.524;5.080;2023-02-28T13:09:56;4.15;;;2.25;;
66342;SDS011;53144;51.524;5.080;2023-02-28T13:12:24;3.03;;;1.90;;
66342;SDS011;53144;51.524;5.080;2023-02-28T13:14:51;2.33;;;1.65;;
66342;SDS011;53144;51.524;5.080;2023-02-28T13:17:29;2.15;;;1.70;;
66342;SDS011;53144;51.524;5.080;2023-02-28T13:24:59;3.17;;;1.80;;
66342;SDS011;53144;51.524;5.080;2023-02-28T13:27:35;1.83;;;1.67;;
66342;SDS011;53144;51.524;5.080;2023-02-28T13:33:22;1.45;;;1.35;;
66342;SDS011;53144;51.524;5.080;2023-02-28T13:36:00;2.38;;;1.73;;
66342;SDS011;53144;51.524;5.080;2023-02-28T13:38:44;1.88;;;1.77;;
66342;SDS011;53144;51.524;5.080;2023-02-28T13:44:01;2.83;;;1.70;;
66342;SDS011;53144;51.524;5.080;2023-02-28T13:46:30;2.20;;;2.00;;
66342;SDS011;53144;51.524;5.080;2023-02-28T13:49:17;1.63;;;1.52;;
66342;SDS011;53144;51.524;5.080;2023-02-28T13:51:44;2.20;;;1.98;;
66342;SDS011;53144;51.524;5.080;2023-02-28T13:54:17;1.75;;;1.65;;
66342;SDS011;53144;51.524;5.080;2023-02-28T13:57:21;3.15;;;2.03;;
66342;SDS011;53144;51.524;5.080;2023-02-28T14:08:07;1.90;;;1.80;;
66342;SDS011;53144;51.524;5.080;2023-02-28T14:10:42;4.22;;;1.95;;
66342;SDS011;53144;51.524;5.080;2023-02-28T14:13:17;1.92;;;1.75;;
66342;SDS011;53144;51.524;5.080;2023-02-28T14:16:22;3.05;;;2.30;;
66342;SDS011;53144;51.524;5.080;2023-02-28T14:18:50;2.90;;;1.88;;
66342;SDS011;53144;51.524;5.080;2023-02-28T14:21:27;3.28;;;1.73;;
66342;SDS011;53144;51.524;5.080;2023-02-28T14:26:37;2.28;;;2.00;;
66342;SDS011;53144;51.524;5.080;2023-02-28T14:29:32;2.35;;;1.90;;
66342;SDS011;53144;51.524;5.080;2023-02-28T14:35:13;2.78;;;2.08;;
66342;SDS011;53144;51.524;5.080;2023-02-28T14:38:00;2.42;;;1.90;;
66342;SDS011;53144;51.524;5.080;2023-02-28T14:40:34;4.95;;;2.10;;
66342;SDS011;53144;51.524;5.080;2023-02-28T14:43:02;5.18;;;2.03;;
66342;SDS011;53144;51.524;5.080;2023-02-28T14:45:30;2.15;;;1.90;;
66342;SDS011;53144;51.524;5.080;2023-02-28T14:47:58;4.32;;;1.83;;
66342;SDS011;53144;51.524;5.080;2023-02-28T14:50:31;2.10;;;1.88;;
66342;SDS011;53144;51.524;5.080;2023-02-28T14:52:59;3.17;;;1.80;;
66342;SDS011;53144;51.524;5.080;2023-02-28T14:55:28;3.00;;;1.92;;
66342;SDS011;53144;51.524;5.080;2023-02-28T14:57:57;2.33;;;2.00;;
66342;SDS011;53144;51.524;5.080;2023-02-28T15:00:31;2.30;;;2.08;;
66342;SDS011;53144;51.524;5.080;2023-02-28T15:02:59;2.85;;;2.15;;
66342;SDS011;53144;51.524;5.080;2023-02-28T15:05:30;2.60;;;2.00;;
66342;SDS011;53144;51.524;5.080;2023-02-28T15:08:11;4.15;;;2.20;;
66342;SDS011;53144;51.524;5.080;2023-02-28T15:10:39;3.90;;;2.20;;
66342;SDS011;53144;51.524;5.080;2023-02-28T15:13:11;2.97;;;2.20;;
66342;SDS011;53144;51.524;5.080;2023-02-28T15:18:10;4.90;;;2.42;;
66342;SDS011;53144;51.524;5.080;2023-02-28T15:20:41;3.03;;;2.30;;
66342;SDS011;53144;51.524;5.080;2023-02-28T15:23:08;5.57;;;1.80;;
66342;SDS011;53144;51.524;5.080;2023-02-28T15:25:34;2.30;;;2.10;;
66342;SDS011;53144;51.524;5.080;2023-02-28T15:27:59;3.78;;;2.22;;
66342;SDS011;53144;51.524;5.080;2023-02-28T15:30:29;2.63;;;2.03;;
66342;SDS011;53144;51.524;5.080;2023-02-28T15:33:07;2.67;;;2.05;;
66342;SDS011;53144;51.524;5.080;2023-02-28T15:35:44;3.50;;;2.28;;
66342;SDS011;53144;51.524;5.080;2023-02-28T15:40:55;3.67;;;2.40;;
66342;SDS011;53144;51.524;5.080;2023-02-28T15:43:26;2.33;;;2.10;;
66342;SDS011;53144;51.524;5.080;2023-02-28T15:51:24;3.40;;;2.20;;
66342;SDS011;53144;51.524;5.080;2023-02-28T15:54:04;3.72;;;2.35;;
66342;SDS011;53144;51.524;5.080;2023-02-28T15:56:39;2.67;;;2.38;;
66342;SDS011;53144;51.524;5.080;2023-02-28T15:59:14;3.33;;;2.33;;
66342;SDS011;53144;51.524;5.080;2023-02-28T16:01:43;4.18;;;2.20;;
66342;SDS011;53144;51.524;5.080;2023-02-28T16:04:18;7.07;;;1.88;;
66342;SDS011;53144;51.524;5.080;2023-02-28T16:06:45;4.55;;;2.50;;
66342;SDS011;53144;51.524;5.080;2023-02-28T16:11:41;3.88;;;2.08;;
66342;SDS011;53144;51.524;5.080;2023-02-28T16:14:13;2.72;;;2.40;;
66342;SDS011;53144;51.524;5.080;2023-02-28T16:16:42;3.35;;;2.28;;
66342;SDS011;53144;51.524;5.080;2023-02-28T16:19:10;5.63;;;2.30;;
66342;SDS011;53144;51.524;5.080;2023-02-28T16:21:35;2.60;;;2.00;;
66342;SDS011;53144;51.524;5.080;2023-02-28T16:24:01;4.55;;;2.38;;
66342;SDS011;53144;51.524;5.080;2023-02-28T16:28:53;7.07;;;2.20;;
66342;SDS011;53144;51.524;5.080;2023-02-28T16:31:19;6.00;;;2.40;;
66342;SDS011;53144;51.524;5.080;2023-02-28T16:33:45;3.60;;;2.20;;
66342;SDS011;53144;51.524;5.080;2023-02-28T16:36:15;6.57;;;2.50;;
66342;SDS011;53144;51.524;5.080;2023-02-28T16:38:43;5.68;;;2.47;;
66342;SDS011;53144;51.524;5.080;2023-02-28T16:41:09;3.53;;;2.60;;
66342;SDS011;53144;51.524;5.080;2023-02-28T16:43:44;2.70;;;2.15;;
66342;SDS011;53144;51.524;5.080;2023-02-28T16:46:11;3.10;;;2.35;;
66342;SDS011;53144;51.524;5.080;2023-02-28T16:48:37;4.38;;;2.30;;
66342;SDS011;53144;51.524;5.080;2023-02-28T16:51:04;4.07;;;2.20;;
66342;SDS011;53144;51.524;5.080;2023-02-28T16:53:30;2.72;;;2.35;;
66342;SDS011;53144;51.524;5.080;2023-02-28T16:55:56;2.92;;;2.50;;
66342;SDS011;53144;51.524;5.080;2023-02-28T16:58:22;3.10;;;2.47;;
66342;SDS011;53144;51.524;5.080;2023-02-28T17:00:50;5.28;;;2.67;;
66342;SDS011;53144;51.524;5.080;2023-02-28T17:03:24;4.00;;;2.35;;
66342;SDS011;53144;51.524;5.080;2023-02-28T17:05:53;3.58;;;2.40;;
66342;SDS011;53144;51.524;5.080;2023-02-28T17:08:18;3.65;;;2.22;;
66342;SDS011;53144;51.524;5.080;2023-02-28T17:10:44;3.22;;;2.63;;
66342;SDS011;53144;51.524;5.080;2023-02-28T17:13:10;3.92;;;2.60;;
66342;SDS011;53144;51.524;5.080;2023-02-28T17:15:35;5.53;;;2.25;;
66342;SDS011;53144;51.524;5.080;2023-02-28T17:18:02;3.75;;;2.65;;
66342;SDS011;53144;51.524;5.080;2023-02-28T17:20:28;3.17;;;2.65;;
66342;SDS011;53144;51.524;5.080;2023-02-28T17:22:54;2.53;;;2.08;;
66342;SDS011;53144;51.524;5.080;2023-02-28T17:25:20;5.22;;;2.75;;
66342;SDS011;53144;51.524;5.080;2023-02-28T17:27:46;4.07;;;2.40;;
66342;SDS011;53144;51.524;5.080;2023-02-28T17:32:42;5.72;;;2.72;;
66342;SDS011;53144;51.524;5.080;2023-02-28T17:35:08;3.35;;;2.17;;
66342;SDS011;53144;51.524;5.080;2023-02-28T17:37:34;4.05;;;2.78;;
66342;SDS011;53144;51.524;5.080;2023-02-28T17:40:00;3.15;;;2.35;;
66342;SDS011;53144;51.524;5.080;2023-02-28T17:42:25;4.10;;;2.30;;
66342;SDS011;53144;51.524;5.080;2023-02-28T17:44:50;2.47;;;1.93;;
66342;SDS011;53144;51.524;5.080;2023-02-28T17:47:16;4.70;;;2.40;;
66342;SDS011;53144;51.524;5.080;2023-02-28T17:49:41;3.30;;;2.57;;
66342;SDS011;53144;51.524;5.080;2023-02-28T17:52:07;3.07;;;2.60;;